This is the latest recevied weather packets stored in our database for station/object SR9NCI. If no packets are shown the sender has not sent any weather packets the latest 1 day(s).
| Time | Temp. | Humidity | Pressure | Rain* | Wind** | Luminosity | Snow |
|---|---|---|---|---|---|---|---|
| 1777981816 | 26.67° C | - | 0 hPa | - | 7.15 m/s, 180° | - | - |
| 1777981574 | 26.67° C | - | 0 hPa | - | 6.71 m/s, 141° | - | - |
| 1777981332 | 26.67° C | - | 0 hPa | - | 6.26 m/s, 147° | - | - |
| 1777981091 | 26.11° C | - | 0 hPa | - | 4.92 m/s, 140° | - | - |
| 1777980849 | 25.56° C | - | 0 hPa | - | 6.26 m/s, 162° | - | - |
| 1777980608 | 25.56° C | - | 0 hPa | - | 5.81 m/s, 167° | - | - |
| 1777980366 | 25.56° C | - | 0 hPa | - | 4.92 m/s, 154° | - | - |
| 1777980124 | 25.56° C | - | 0 hPa | - | 5.81 m/s, 165° | - | - |
| 1777979877 | 25° C | - | 0 hPa | - | 7.6 m/s, 181° | - | - |
| 1777979642 | 26.11° C | - | 0 hPa | - | 6.71 m/s, 174° | - | - |
| 1777979393 | 26.11° C | - | 0 hPa | - | 7.15 m/s, 176° | - | - |
| 1777979152 | 25.56° C | - | 0 hPa | - | 7.15 m/s, 172° | - | - |
| 1777978910 | 25.56° C | - | 0 hPa | - | 4.92 m/s, 184° | - | - |
| 1777978669 | 25.56° C | - | 0 hPa | - | 6.26 m/s, 197° | - | - |
| 1777978426 | 25.56° C | - | 0 hPa | - | 5.81 m/s, 164° | - | - |
| 1777978185 | 25.56° C | - | 0 hPa | - | 6.71 m/s, 168° | - | - |
| 1777977944 | 25.56° C | - | 0 hPa | - | 5.36 m/s, 164° | - | - |
| 1777977702 | 25.56° C | - | 0 hPa | - | 5.81 m/s, 172° | - | - |
| 1777977453 | 25.56° C | - | 0 hPa | - | 5.36 m/s, 162° | - | - |
| 1777977211 | 25° C | - | 0 hPa | - | 7.15 m/s, 180° | - | - |
| 1777976970 | 25.56° C | - | 0 hPa | - | 4.92 m/s, 151° | - | - |
| 1777976729 | 25° C | - | 0 hPa | - | 5.36 m/s, 152° | - | - |
| 1777976245 | 25.56° C | - | 0 hPa | - | 4.92 m/s, 152° | - | - |
| 1777976003 | 25° C | - | 0 hPa | - | 6.26 m/s, 165° | - | - |
| 1777975762 | 25° C | - | 0 hPa | - | 7.6 m/s, 151° | - | - |
* Rain since midnight (hover to see other rain measurements)
** Current wind speed in m/s (hover to see current wind gust speed)